sensor_id;sensor_type;location;lat;lon;timestamp;temperature;humidity
21805;DHT22;11064;47.102;15.452;2023-04-25T04:03:35;4.00;99.90
21805;DHT22;11064;47.102;15.452;2023-04-25T04:06:05;3.90;99.90
21805;DHT22;11064;47.102;15.452;2023-04-25T04:08:32;4.00;99.90
21805;DHT22;11064;47.102;15.452;2023-04-25T04:10:58;4.30;99.90
21805;DHT22;11064;47.102;15.452;2023-04-25T04:13:27;4.40;99.90
21805;DHT22;11064;47.102;15.452;2023-04-25T04:15:54;4.50;99.90
21805;DHT22;11064;47.102;15.452;2023-04-25T04:18:21;4.50;99.90
21805;DHT22;11064;47.102;15.452;2023-04-25T04:20:47;4.60;99.90
21805;DHT22;11064;47.102;15.452;2023-04-25T04:23:13;4.60;99.90
21805;DHT22;11064;47.102;15.452;2023-04-25T04:25:39;4.60;99.90
21805;DHT22;11064;47.102;15.452;2023-04-25T04:28:06;4.70;99.90
21805;DHT22;11064;47.102;15.452;2023-04-25T04:30:33;4.80;99.90
21805;DHT22;11064;47.102;15.452;2023-04-25T04:33:02;4.80;99.90
21805;DHT22;11064;47.102;15.452;2023-04-25T04:35:28;4.90;99.90
21805;DHT22;11064;47.102;15.452;2023-04-25T04:37:53;5.00;99.90
21805;DHT22;11064;47.102;15.452;2023-04-25T04:40:20;5.10;99.90
21805;DHT22;11064;47.102;15.452;2023-04-25T04:42:47;5.20;99.90
21805;DHT22;11064;47.102;15.452;2023-04-25T04:45:14;5.30;99.90
21805;DHT22;11064;47.102;15.452;2023-04-25T04:47:40;5.40;99.90
21805;DHT22;11064;47.102;15.452;2023-04-25T04:50:07;5.70;99.90
21805;DHT22;11064;47.102;15.452;2023-04-25T04:52:35;5.90;99.90
21805;DHT22;11064;47.102;15.452;2023-04-25T04:55:02;6.30;99.90
21805;DHT22;11064;47.102;15.452;2023-04-25T04:57:28;7.20;99.90
21805;DHT22;11064;47.102;15.452;2023-04-25T04:59:54;8.10;99.90
21805;DHT22;11064;47.102;15.452;2023-04-25T05:02:20;8.70;99.90
21805;DHT22;11064;47.102;15.452;2023-04-25T05:04:46;9.70;99.90
21805;DHT22;11064;47.102;15.452;2023-04-25T05:07:12;11.20;99.90
21805;DHT22;11064;47.102;15.452;2023-04-25T05:09:38;12.30;99.90
21805;DHT22;11064;47.102;15.452;2023-04-25T05:12:05;12.80;99.20
21805;DHT22;11064;47.102;15.452;2023-04-25T05:14:30;13.30;97.90
21805;DHT22;11064;47.102;15.452;2023-04-25T05:16:56;13.50;95.20
21805;DHT22;11064;47.102;15.452;2023-04-25T05:19:22;13.00;93.90
21805;DHT22;11064;47.102;15.452;2023-04-25T05:21:49;12.10;93.00
21805;DHT22;11064;47.102;15.452;2023-04-25T05:24:14;11.00;94.40
21805;DHT22;11064;47.102;15.452;2023-04-25T05:26:40;10.10;95.50
21805;DHT22;11064;47.102;15.452;2023-04-25T05:29:06;9.50;98.70
21805;DHT22;11064;47.102;15.452;2023-04-25T05:31:32;9.00;99.90
21805;DHT22;11064;47.102;15.452;2023-04-25T05:33:58;8.80;99.90
21805;DHT22;11064;47.102;15.452;2023-04-25T05:36:24;8.60;99.90
21805;DHT22;11064;47.102;15.452;2023-04-25T05:38:49;8.60;99.90
21805;DHT22;11064;47.102;15.452;2023-04-25T05:41:15;8.60;99.90
21805;DHT22;11064;47.102;15.452;2023-04-25T05:43:41;8.60;99.90
21805;DHT22;11064;47.102;15.452;2023-04-25T05:46:13;8.70;99.90
21805;DHT22;11064;47.102;15.452;2023-04-25T05:48:39;8.50;99.90
21805;DHT22;11064;47.102;15.452;2023-04-25T05:51:05;8.40;99.90
21805;DHT22;11064;47.102;15.452;2023-04-25T05:53:31;8.30;99.90
21805;DHT22;11064;47.102;15.452;2023-04-25T05:55:56;8.10;99.90
21805;DHT22;11064;47.102;15.452;2023-04-25T05:58:22;7.90;99.90
21805;DHT22;11064;47.102;15.452;2023-04-25T06:00:48;8.00;99.90
21805;DHT22;11064;47.102;15.452;2023-04-25T06:03:14;8.20;99.90
21805;DHT22;11064;47.102;15.452;2023-04-25T06:05:43;8.40;99.90
21805;DHT22;11064;47.102;15.452;2023-04-25T06:08:09;8.60;99.90
21805;DHT22;11064;47.102;15.452;2023-04-25T06:10:36;8.90;99.90
21805;DHT22;11064;47.102;15.452;2023-04-25T06:13:02;9.10;99.90
21805;DHT22;11064;47.102;15.452;2023-04-25T06:15:28;9.20;99.90
21805;DHT22;11064;47.102;15.452;2023-04-25T06:17:54;9.30;99.90
21805;DHT22;11064;47.102;15.452;2023-04-25T06:20:20;9.40;99.90
21805;DHT22;11064;47.102;15.452;2023-04-25T06:22:49;9.50;99.90
21805;DHT22;11064;47.102;15.452;2023-04-25T06:25:15;9.60;99.90
21805;DHT22;11064;47.102;15.452;2023-04-25T06:27:41;9.80;99.90
21805;DHT22;11064;47.102;15.452;2023-04-25T06:30:07;9.80;99.90
21805;DHT22;11064;47.102;15.452;2023-04-25T06:32:33;9.90;99.90
21805;DHT22;11064;47.102;15.452;2023-04-25T06:35:00;10.10;99.90
21805;DHT22;11064;47.102;15.452;2023-04-25T06:37:26;10.20;99.90
21805;DHT22;11064;47.102;15.452;2023-04-25T06:39:52;10.30;99.90
21805;DHT22;11064;47.102;15.452;2023-04-25T06:42:17;10.50;99.90
21805;DHT22;11064;47.102;15.452;2023-04-25T06:44:44;10.70;99.90
21805;DHT22;11064;47.102;15.452;2023-04-25T06:47:10;10.80;99.90
21805;DHT22;11064;47.102;15.452;2023-04-25T06:49:36;10.90;99.90
21805;DHT22;11064;47.102;15.452;2023-04-25T06:52:02;11.00;99.90
21805;DHT22;11064;47.102;15.452;2023-04-25T06:54:28;11.00;99.90
21805;DHT22;11064;47.102;15.452;2023-04-25T06:56:55;11.20;99.90
21805;DHT22;11064;47.102;15.452;2023-04-25T06:59:21;11.20;99.90
21805;DHT22;11064;47.102;15.452;2023-04-25T07:01:47;11.20;99.90
21805;DHT22;11064;47.102;15.452;2023-04-25T07:04:13;11.30;99.90
21805;DHT22;11064;47.102;15.452;2023-04-25T07:06:39;11.40;99.90
21805;DHT22;11064;47.102;15.452;2023-04-25T07:09:08;11.40;99.90
21805;DHT22;11064;47.102;15.452;2023-04-25T07:11:36;11.40;99.90
21805;DHT22;11064;47.102;15.452;2023-04-25T07:14:02;11.50;99.90
21805;DHT22;11064;47.102;15.452;2023-04-25T07:16:28;11.80;99.90
21805;DHT22;11064;47.102;15.452;2023-04-25T07:18:54;12.00;99.90
21805;DHT22;11064;47.102;15.452;2023-04-25T07:21:19;12.00;97.90
21805;DHT22;11064;47.102;15.452;2023-04-25T07:23:45;12.20;97.30
21805;DHT22;11064;47.102;15.452;2023-04-25T07:26:11;12.30;94.10
21805;DHT22;11064;47.102;15.452;2023-04-25T07:28:37;12.40;87.70
21805;DHT22;11064;47.102;15.452;2023-04-25T07:31:03;12.50;85.50
21805;DHT22;11064;47.102;15.452;2023-04-25T07:33:29;12.60;80.50
21805;DHT22;11064;47.102;15.452;2023-04-25T07:35:55;12.70;78.50
21805;DHT22;11064;47.102;15.452;2023-04-25T07:38:21;12.70;78.00
21805;DHT22;11064;47.102;15.452;2023-04-25T07:40:48;12.90;82.30
21805;DHT22;11064;47.102;15.452;2023-04-25T07:43:14;13.10;83.50
21805;DHT22;11064;47.102;15.452;2023-04-25T07:45:46;13.20;88.40
21805;DHT22;11064;47.102;15.452;2023-04-25T07:48:18;13.40;84.00
21805;DHT22;11064;47.102;15.452;2023-04-25T07:50:44;13.40;82.20
21805;DHT22;11064;47.102;15.452;2023-04-25T07:53:11;13.70;84.20
21805;DHT22;11064;47.102;15.452;2023-04-25T07:55:37;14.00;87.00
21805;DHT22;11064;47.102;15.452;2023-04-25T07:58:06;14.40;82.90
21805;DHT22;11064;47.102;15.452;2023-04-25T08:00:32;14.70;83.90
21805;DHT22;11064;47.102;15.452;2023-04-25T08:02:58;15.10;79.90
21805;DHT22;11064;47.102;15.452;2023-04-25T08:05:23;15.40;74.00
21805;DHT22;11064;47.102;15.452;2023-04-25T08:07:49;15.70;79.70
21805;DHT22;11064;47.102;15.452;2023-04-25T08:10:15;16.20;68.10
21805;DHT22;11064;47.102;15.452;2023-04-25T08:12:41;15.90;63.10
21805;DHT22;11064;47.102;15.452;2023-04-25T08:15:08;15.90;70.00
21805;DHT22;11064;47.102;15.452;2023-04-25T08:17:34;16.10;66.60
21805;DHT22;11064;47.102;15.452;2023-04-25T08:19:59;16.50;62.40
21805;DHT22;11064;47.102;15.452;2023-04-25T08:22:25;16.50;58.60
21805;DHT22;11064;47.102;15.452;2023-04-25T08:24:51;16.10;57.10
21805;DHT22;11064;47.102;15.452;2023-04-25T08:27:18;15.90;59.20
21805;DHT22;11064;47.102;15.452;2023-04-25T08:29:44;15.50;59.10
21805;DHT22;11064;47.102;15.452;2023-04-25T08:32:09;15.40;61.00
21805;DHT22;11064;47.102;15.452;2023-04-25T08:34:35;15.50;64.80
21805;DHT22;11064;47.102;15.452;2023-04-25T08:37:03;15.80;62.60
21805;DHT22;11064;47.102;15.452;2023-04-25T08:39:29;16.20;64.10
21805;DHT22;11064;47.102;15.452;2023-04-25T08:41:56;17.00;59.80
21805;DHT22;11064;47.102;15.452;2023-04-25T08:44:22;17.00;55.50
21805;DHT22;11064;47.102;15.452;2023-04-25T08:46:49;17.20;59.50
21805;DHT22;11064;47.102;15.452;2023-04-25T08:49:18;17.00;60.50
21805;DHT22;11064;47.102;15.452;2023-04-25T08:51:45;17.00;65.70
21805;DHT22;11064;47.102;15.452;2023-04-25T08:54:16;17.10;66.00
21805;DHT22;11064;47.102;15.452;2023-04-25T08:56:45;17.00;69.50
21805;DHT22;11064;47.102;15.452;2023-04-25T08:59:12;17.00;68.70
21805;DHT22;11064;47.102;15.452;2023-04-25T09:01:38;16.60;61.80
21805;DHT22;11064;47.102;15.452;2023-04-25T09:04:04;16.60;63.90
21805;DHT22;11064;47.102;15.452;2023-04-25T09:06:30;16.90;65.80
21805;DHT22;11064;47.102;15.452;2023-04-25T09:09:08;17.20;66.20
21805;DHT22;11064;47.102;15.452;2023-04-25T09:11:35;17.00;64.30
21805;DHT22;11064;47.102;15.452;2023-04-25T09:14:30;17.20;62.00
21805;DHT22;11064;47.102;15.452;2023-04-25T09:19:33;18.40;63.20
21805;DHT22;11064;47.102;15.452;2023-04-25T09:22:03;18.70;56.10
21805;DHT22;11064;47.102;15.452;2023-04-25T09:24:37;18.90;54.20
21805;DHT22;11064;47.102;15.452;2023-04-25T09:27:05;19.20;53.40
21805;DHT22;11064;47.102;15.452;2023-04-25T09:29:36;19.30;55.20
21805;DHT22;11064;47.102;15.452;2023-04-25T09:32:23;19.50;54.90
21805;DHT22;11064;47.102;15.452;2023-04-25T09:34:55;20.00;53.70
21805;DHT22;11064;47.102;15.452;2023-04-25T09:37:26;20.20;55.60
21805;DHT22;11064;47.102;15.452;2023-04-25T09:39:57;19.90;58.20
21805;DHT22;11064;47.102;15.452;2023-04-25T09:42:26;19.40;54.90
21805;DHT22;11064;47.102;15.452;2023-04-25T09:44:54;19.90;54.80
21805;DHT22;11064;47.102;15.452;2023-04-25T09:47:23;20.30;53.00
21805;DHT22;11064;47.102;15.452;2023-04-25T09:49:49;20.80;52.60
21805;DHT22;11064;47.102;15.452;2023-04-25T09:52:20;20.70;52.00
21805;DHT22;11064;47.102;15.452;2023-04-25T09:54:48;20.50;49.70
21805;DHT22;11064;47.102;15.452;2023-04-25T09:57:19;20.00;52.80
21805;DHT22;11064;47.102;15.452;2023-04-25T09:59:50;20.20;51.70
21805;DHT22;11064;47.102;15.452;2023-04-25T10:02:18;20.40;50.70
21805;DHT22;11064;47.102;15.452;2023-04-25T10:04:50;20.10;49.10
21805;DHT22;11064;47.102;15.452;2023-04-25T10:07:20;20.10;50.20
21805;DHT22;11064;47.102;15.452;2023-04-25T10:09:49;19.60;51.10
21805;DHT22;11064;47.102;15.452;2023-04-25T10:12:17;19.60;50.70
21805;DHT22;11064;47.102;15.452;2023-04-25T10:14:43;19.40;48.20
21805;DHT22;11064;47.102;15.452;2023-04-25T10:17:10;19.50;46.60
21805;DHT22;11064;47.102;15.452;2023-04-25T10:19:37;19.40;45.20
21805;DHT22;11064;47.102;15.452;2023-04-25T10:22:12;18.40;44.60
21805;DHT22;11064;47.102;15.452;2023-04-25T10:24:40;17.40;47.20
21805;DHT22;11064;47.102;15.452;2023-04-25T10:27:07;17.40;53.60
21805;DHT22;11064;47.102;15.452;2023-04-25T10:29:33;18.00;54.10
21805;DHT22;11064;47.102;15.452;2023-04-25T10:32:00;18.40;52.10
21805;DHT22;11064;47.102;15.452;2023-04-25T10:34:44;18.30;49.10
21805;DHT22;11064;47.102;15.452;2023-04-25T10:37:12;18.60;48.10
21805;DHT22;11064;47.102;15.452;2023-04-25T10:39:40;18.30;46.20
21805;DHT22;11064;47.102;15.452;2023-04-25T10:42:10;18.20;48.70
21805;DHT22;11064;47.102;15.452;2023-04-25T10:44:38;17.60;52.60
21805;DHT22;11064;47.102;15.452;2023-04-25T10:47:07;17.90;48.50
21805;DHT22;11064;47.102;15.452;2023-04-25T10:49:42;18.40;55.30
21805;DHT22;11064;47.102;15.452;2023-04-25T10:52:13;18.80;52.60
21805;DHT22;11064;47.102;15.452;2023-04-25T10:54:45;19.10;53.30
21805;DHT22;11064;47.102;15.452;2023-04-25T10:57:38;18.80;50.10
21805;DHT22;11064;47.102;15.452;2023-04-25T11:00:08;19.60;50.30
21805;DHT22;11064;47.102;15.452;2023-04-25T11:02:44;19.70;50.60
21805;DHT22;11064;47.102;15.452;2023-04-25T11:07:52;19.20;48.90
21805;DHT22;11064;47.102;15.452;2023-04-25T11:10:18;19.30;50.50
21805;DHT22;11064;47.102;15.452;2023-04-25T11:12:46;19.00;50.80
21805;DHT22;11064;47.102;15.452;2023-04-25T11:15:13;18.50;49.40
21805;DHT22;11064;47.102;15.452;2023-04-25T11:17:39;18.30;54.60
21805;DHT22;11064;47.102;15.452;2023-04-25T11:20:07;18.00;50.80
21805;DHT22;11064;47.102;15.452;2023-04-25T11:22:38;17.70;50.40
21805;DHT22;11064;47.102;15.452;2023-04-25T11:25:07;17.30;52.30
21805;DHT22;11064;47.102;15.452;2023-04-25T11:27:33;16.50;50.30
21805;DHT22;11064;47.102;15.452;2023-04-25T11:30:16;15.80;51.60
21805;DHT22;11064;47.102;15.452;2023-04-25T11:32:42;15.00;55.40
21805;DHT22;11064;47.102;15.452;2023-04-25T11:35:09;14.50;56.70
21805;DHT22;11064;47.102;15.452;2023-04-25T11:37:36;14.50;54.10
21805;DHT22;11064;47.102;15.452;2023-04-25T11:40:06;15.10;54.40
21805;DHT22;11064;47.102;15.452;2023-04-25T11:42:33;15.70;52.40
21805;DHT22;11064;47.102;15.452;2023-04-25T11:44:59;16.70;50.80
21805;DHT22;11064;47.102;15.452;2023-04-25T11:47:30;17.30;47.20
21805;DHT22;11064;47.102;15.452;2023-04-25T11:49:58;17.30;48.40
21805;DHT22;11064;47.102;15.452;2023-04-25T11:52:35;16.30;49.70
21805;DHT22;11064;47.102;15.452;2023-04-25T11:55:03;15.60;52.40
21805;DHT22;11064;47.102;15.452;2023-04-25T11:57:31;15.20;52.80
21805;DHT22;11064;47.102;15.452;2023-04-25T12:00:14;15.40;54.60
21805;DHT22;11064;47.102;15.452;2023-04-25T12:02:47;15.40;53.30
21805;DHT22;11064;47.102;15.452;2023-04-25T12:05:14;15.40;54.00
21805;DHT22;11064;47.102;15.452;2023-04-25T12:07:43;15.70;54.80
21805;DHT22;11064;47.102;15.452;2023-04-25T12:10:17;16.00;52.30
21805;DHT22;11064;47.102;15.452;2023-04-25T12:12:45;16.50;52.90
21805;DHT22;11064;47.102;15.452;2023-04-25T12:15:13;16.70;57.50
21805;DHT22;11064;47.102;15.452;2023-04-25T12:17:44;16.70;50.90
21805;DHT22;11064;47.102;15.452;2023-04-25T12:20:13;17.10;51.20
21805;DHT22;11064;47.102;15.452;2023-04-25T12:22:44;17.20;51.80
21805;DHT22;11064;47.102;15.452;2023-04-25T12:28:21;18.30;48.60
21805;DHT22;11064;47.102;15.452;2023-04-25T12:33:33;19.00;49.30
21805;DHT22;11064;47.102;15.452;2023-04-25T12:35:59;19.00;49.30
21805;DHT22;11064;47.102;15.452;2023-04-25T12:38:26;18.50;47.20
21805;DHT22;11064;47.102;15.452;2023-04-25T12:40:53;18.20;47.80
21805;DHT22;11064;47.102;15.452;2023-04-25T12:43:19;18.00;48.10
21805;DHT22;11064;47.102;15.452;2023-04-25T12:45:48;18.10;48.70
21805;DHT22;11064;47.102;15.452;2023-04-25T12:48:15;17.90;49.00
21805;DHT22;11064;47.102;15.452;2023-04-25T12:50:41;17.90;50.50
21805;DHT22;11064;47.102;15.452;2023-04-25T12:53:07;17.90;49.00
21805;DHT22;11064;47.102;15.452;2023-04-25T12:55:33;18.10;47.50
21805;DHT22;11064;47.102;15.452;2023-04-25T12:57:59;18.20;47.60
21805;DHT22;11064;47.102;15.452;2023-04-25T13:00:25;18.40;49.70
21805;DHT22;11064;47.102;15.452;2023-04-25T13:02:52;18.60;48.60
21805;DHT22;11064;47.102;15.452;2023-04-25T13:05:18;18.90;49.00
21805;DHT22;11064;47.102;15.452;2023-04-25T13:07:43;18.80;47.40
21805;DHT22;11064;47.102;15.452;2023-04-25T13:10:10;18.60;45.90
21805;DHT22;11064;47.102;15.452;2023-04-25T13:12:36;18.40;47.30
21805;DHT22;11064;47.102;15.452;2023-04-25T13:15:02;18.10;47.70
21805;DHT22;11064;47.102;15.452;2023-04-25T13:17:28;17.80;47.30
21805;DHT22;11064;47.102;15.452;2023-04-25T13:19:54;17.90;47.80
21805;DHT22;11064;47.102;15.452;2023-04-25T13:22:20;17.90;47.90
21805;DHT22;11064;47.102;15.452;2023-04-25T13:24:46;17.70;46.00
21805;DHT22;11064;47.102;15.452;2023-04-25T13:27:13;17.60;47.70
21805;DHT22;11064;47.102;15.452;2023-04-25T13:29:38;18.30;47.60
21805;DHT22;11064;47.102;15.452;2023-04-25T13:32:07;18.30;46.50
21805;DHT22;11064;47.102;15.452;2023-04-25T13:34:33;18.60;47.00
21805;DHT22;11064;47.102;15.452;2023-04-25T13:36:59;18.90;50.50
21805;DHT22;11064;47.102;15.452;2023-04-25T13:39:24;19.50;48.40
21805;DHT22;11064;47.102;15.452;2023-04-25T13:41:50;20.10;46.70
21805;DHT22;11064;47.102;15.452;2023-04-25T13:44:16;20.40;45.80
21805;DHT22;11064;47.102;15.452;2023-04-25T13:46:42;20.20;44.30
21805;DHT22;11064;47.102;15.452;2023-04-25T13:49:08;19.70;43.90
21805;DHT22;11064;47.102;15.452;2023-04-25T13:51:34;19.20;47.80
21805;DHT22;11064;47.102;15.452;2023-04-25T13:54:00;19.30;51.10
21805;DHT22;11064;47.102;15.452;2023-04-25T13:56:26;19.20;51.90
21805;DHT22;11064;47.102;15.452;2023-04-25T13:58:52;18.70;53.40
21805;DHT22;11064;47.102;15.452;2023-04-25T14:01:18;18.50;53.90
21805;DHT22;11064;47.102;15.452;2023-04-25T14:03:44;18.00;54.30
21805;DHT22;11064;47.102;15.452;2023-04-25T14:06:11;17.90;55.20
21805;DHT22;11064;47.102;15.452;2023-04-25T14:08:38;18.10;58.00
21805;DHT22;11064;47.102;15.452;2023-04-25T14:11:04;18.30;55.90
21805;DHT22;11064;47.102;15.452;2023-04-25T14:13:30;18.20;53.30
21805;DHT22;11064;47.102;15.452;2023-04-25T14:15:56;17.90;53.60
21805;DHT22;11064;47.102;15.452;2023-04-25T14:18:22;18.20;55.90
21805;DHT22;11064;47.102;15.452;2023-04-25T14:20:48;18.40;53.70
21805;DHT22;11064;47.102;15.452;2023-04-25T14:23:13;18.80;54.20
21805;DHT22;11064;47.102;15.452;2023-04-25T14:25:39;18.30;53.10
21805;DHT22;11064;47.102;15.452;2023-04-25T14:28:07;18.10;53.80
21805;DHT22;11064;47.102;15.452;2023-04-25T14:30:33;18.20;53.30
21805;DHT22;11064;47.102;15.452;2023-04-25T14:32:59;18.20;54.90
21805;DHT22;11064;47.102;15.452;2023-04-25T14:35:25;18.10;54.00
21805;DHT22;11064;47.102;15.452;2023-04-25T14:37:50;18.00;52.90
21805;DHT22;11064;47.102;15.452;2023-04-25T14:40:16;17.60;54.10
21805;DHT22;11064;47.102;15.452;2023-04-25T14:42:43;17.00;56.00
21805;DHT22;11064;47.102;15.452;2023-04-25T14:45:09;16.10;53.60
21805;DHT22;11064;47.102;15.452;2023-04-25T14:47:38;15.60;53.80
21805;DHT22;11064;47.102;15.452;2023-04-25T14:50:04;15.10;55.20
21805;DHT22;11064;47.102;15.452;2023-04-25T14:52:30;15.00;56.20
21805;DHT22;11064;47.102;15.452;2023-04-25T14:54:56;14.90;55.60
21805;DHT22;11064;47.102;15.452;2023-04-25T14:57:22;14.90;56.20
21805;DHT22;11064;47.102;15.452;2023-04-25T14:59:48;15.00;57.00
21805;DHT22;11064;47.102;15.452;2023-04-25T15:02:13;15.20;59.70
21805;DHT22;11064;47.102;15.452;2023-04-25T15:04:39;15.30;56.20
21805;DHT22;11064;47.102;15.452;2023-04-25T15:07:05;15.30;55.40
21805;DHT22;11064;47.102;15.452;2023-04-25T15:09:31;15.40;57.00
21805;DHT22;11064;47.102;15.452;2023-04-25T15:11:57;15.50;53.80
21805;DHT22;11064;47.102;15.452;2023-04-25T15:14:23;15.90;55.60
21805;DHT22;11064;47.102;15.452;2023-04-25T15:16:49;16.10;54.20
21805;DHT22;11064;47.102;15.452;2023-04-25T15:19:15;16.30;54.40
21805;DHT22;11064;47.102;15.452;2023-04-25T15:21:41;15.90;56.00
21805;DHT22;11064;47.102;15.452;2023-04-25T15:24:07;15.90;54.30
21805;DHT22;11064;47.102;15.452;2023-04-25T15:26:33;15.50;53.70
21805;DHT22;11064;47.102;15.452;2023-04-25T15:28:59;15.30;54.40
21805;DHT22;11064;47.102;15.452;2023-04-25T15:31:24;15.50;54.80
21805;DHT22;11064;47.102;15.452;2023-04-25T15:33:50;15.50;54.00
21805;DHT22;11064;47.102;15.452;2023-04-25T15:36:16;15.40;52.30
21805;DHT22;11064;47.102;15.452;2023-04-25T15:38:44;15.10;52.00
21805;DHT22;11064;47.102;15.452;2023-04-25T15:41:09;15.10;51.80
21805;DHT22;11064;47.102;15.452;2023-04-25T15:43:35;15.00;52.20
21805;DHT22;11064;47.102;15.452;2023-04-25T15:46:04;14.80;53.10
21805;DHT22;11064;47.102;15.452;2023-04-25T15:48:30;14.60;51.40
21805;DHT22;11064;47.102;15.452;2023-04-25T15:50:57;14.50;52.40
21805;DHT22;11064;47.102;15.452;2023-04-25T15:53:23;14.40;53.80
21805;DHT22;11064;47.102;15.452;2023-04-25T15:55:49;14.30;53.20
21805;DHT22;11064;47.102;15.452;2023-04-25T15:58:14;14.30;53.70
21805;DHT22;11064;47.102;15.452;2023-04-25T16:00:40;14.10;53.80
21805;DHT22;11064;47.102;15.452;2023-04-25T16:03:06;14.10;53.10
21805;DHT22;11064;47.102;15.452;2023-04-25T16:05:33;14.00;54.10
21805;DHT22;11064;47.102;15.452;2023-04-25T16:07:59;14.00;55.30
21805;DHT22;11064;47.102;15.452;2023-04-25T16:10:25;13.90;53.10
21805;DHT22;11064;47.102;15.452;2023-04-25T16:12:51;13.90;54.10
21805;DHT22;11064;47.102;15.452;2023-04-25T16:15:17;13.90;55.30
21805;DHT22;11064;47.102;15.452;2023-04-25T16:17:43;13.90;57.40
21805;DHT22;11064;47.102;15.452;2023-04-25T16:20:09;13.80;57.10
21805;DHT22;11064;47.102;15.452;2023-04-25T16:22:41;13.70;58.90
21805;DHT22;11064;47.102;15.452;2023-04-25T16:25:07;13.70;55.40
21805;DHT22;11064;47.102;15.452;2023-04-25T16:27:34;13.70;55.60
21805;DHT22;11064;47.102;15.452;2023-04-25T16:30:01;13.70;55.90
21805;DHT22;11064;47.102;15.452;2023-04-25T16:32:27;13.70;55.30
21805;DHT22;11064;47.102;15.452;2023-04-25T16:34:53;13.70;54.50
21805;DHT22;11064;47.102;15.452;2023-04-25T16:37:18;13.60;53.50
21805;DHT22;11064;47.102;15.452;2023-04-25T16:39:44;13.50;54.60
21805;DHT22;11064;47.102;15.452;2023-04-25T16:42:12;13.40;57.10
21805;DHT22;11064;47.102;15.452;2023-04-25T16:44:37;13.30;55.50
21805;DHT22;11064;47.102;15.452;2023-04-25T16:47:03;13.10;57.40
21805;DHT22;11064;47.102;15.452;2023-04-25T16:49:30;13.20;55.00
21805;DHT22;11064;47.102;15.452;2023-04-25T16:51:56;13.20;54.30
21805;DHT22;11064;47.102;15.452;2023-04-25T16:54:22;13.20;55.80
21805;DHT22;11064;47.102;15.452;2023-04-25T16:56:50;13.30;53.50
21805;DHT22;11064;47.102;15.452;2023-04-25T16:59:16;13.40;53.60
21805;DHT22;11064;47.102;15.452;2023-04-25T17:01:42;13.50;54.90
21805;DHT22;11064;47.102;15.452;2023-04-25T17:04:08;13.70;54.30
21805;DHT22;11064;47.102;15.452;2023-04-25T17:06:34;13.80;53.60
21805;DHT22;11064;47.102;15.452;2023-04-25T17:08:59;13.70;53.70
21805;DHT22;11064;47.102;15.452;2023-04-25T17:11:25;13.60;53.00
21805;DHT22;11064;47.102;15.452;2023-04-25T17:13:51;13.40;54.10
21805;DHT22;11064;47.102;15.452;2023-04-25T17:16:20;13.30;55.80
21805;DHT22;11064;47.102;15.452;2023-04-25T17:18:50;13.10;58.40
21805;DHT22;11064;47.102;15.452;2023-04-25T17:21:17;12.80;58.70
21805;DHT22;11064;47.102;15.452;2023-04-25T17:23:43;12.40;59.30
21805;DHT22;11064;47.102;15.452;2023-04-25T17:26:12;12.10;61.70
21805;DHT22;11064;47.102;15.452;2023-04-25T17:28:38;11.90;61.70
21805;DHT22;11064;47.102;15.452;2023-04-25T17:31:07;11.70;62.90
21805;DHT22;11064;47.102;15.452;2023-04-25T17:33:33;11.60;64.90
21805;DHT22;11064;47.102;15.452;2023-04-25T17:35:59;11.40;64.90
21805;DHT22;11064;47.102;15.452;2023-04-25T17:38:24;11.20;66.10
21805;DHT22;11064;47.102;15.452;2023-04-25T17:40:50;11.00;66.60
21805;DHT22;11064;47.102;15.452;2023-04-25T17:43:16;10.90;66.10
21805;DHT22;11064;47.102;15.452;2023-04-25T17:45:42;10.80;65.80
21805;DHT22;11064;47.102;15.452;2023-04-25T17:48:08;10.70;67.50
21805;DHT22;11064;47.102;15.452;2023-04-25T17:50:34;10.60;65.40
21805;DHT22;11064;47.102;15.452;2023-04-25T17:53:01;10.50;65.80
21805;DHT22;11064;47.102;15.452;2023-04-25T17:55:28;10.40;66.10
21805;DHT22;11064;47.102;15.452;2023-04-25T17:57:54;10.30;66.00
21805;DHT22;11064;47.102;15.452;2023-04-25T18:00:20;10.20;67.20
21805;DHT22;11064;47.102;15.452;2023-04-25T18:02:46;10.00;66.90
21805;DHT22;11064;47.102;15.452;2023-04-25T18:05:15;10.00;67.50
21805;DHT22;11064;47.102;15.452;2023-04-25T18:07:42;9.90;67.60
21805;DHT22;11064;47.102;15.452;2023-04-25T18:10:09;9.90;68.00
21805;DHT22;11064;47.102;15.452;2023-04-25T18:12:36;9.80;68.40
21805;DHT22;11064;47.102;15.452;2023-04-25T18:15:03;9.70;69.10
21805;DHT22;11064;47.102;15.452;2023-04-25T18:17:33;9.60;69.60
21805;DHT22;11064;47.102;15.452;2023-04-25T18:20:06;9.50;69.70
21805;DHT22;11064;47.102;15.452;2023-04-25T18:22:36;9.40;70.30
21805;DHT22;11064;47.102;15.452;2023-04-25T18:25:11;9.30;70.30
21805;DHT22;11064;47.102;15.452;2023-04-25T18:27:39;9.30;71.20
21805;DHT22;11064;47.102;15.452;2023-04-25T18:30:06;9.20;72.80
21805;DHT22;11064;47.102;15.452;2023-04-25T18:32:33;9.10;71.90
21805;DHT22;11064;47.102;15.452;2023-04-25T18:34:59;9.10;72.70
21805;DHT22;11064;47.102;15.452;2023-04-25T18:37:25;9.10;73.20
21805;DHT22;11064;47.102;15.452;2023-04-25T18:39:53;9.00;72.40
21805;DHT22;11064;47.102;15.452;2023-04-25T18:42:19;9.00;73.40
21805;DHT22;11064;47.102;15.452;2023-04-25T18:44:45;9.00;74.70
21805;DHT22;11064;47.102;15.452;2023-04-25T18:47:11;8.90;73.70
21805;DHT22;11064;47.102;15.452;2023-04-25T18:49:38;8.90;74.40
21805;DHT22;11064;47.102;15.452;2023-04-25T18:52:06;8.80;74.90
21805;DHT22;11064;47.102;15.452;2023-04-25T18:54:37;8.70;75.80
21805;DHT22;11064;47.102;15.452;2023-04-25T18:57:04;8.60;76.00
21805;DHT22;11064;47.102;15.452;2023-04-25T18:59:31;8.50;76.60
21805;DHT22;11064;47.102;15.452;2023-04-25T19:01:57;8.50;75.80
21805;DHT22;11064;47.102;15.452;2023-04-25T19:04:26;8.50;77.50
21805;DHT22;11064;47.102;15.452;2023-04-25T19:06:52;8.50;78.20
21805;DHT22;11064;47.102;15.452;2023-04-25T19:09:18;8.40;78.30
21805;DHT22;11064;47.102;15.452;2023-04-25T19:11:45;8.40;78.90
21805;DHT22;11064;47.102;15.452;2023-04-25T19:14:12;8.40;78.40
21805;DHT22;11064;47.102;15.452;2023-04-25T19:16:38;8.30;78.20
21805;DHT22;11064;47.102;15.452;2023-04-25T19:19:05;8.20;79.00
21805;DHT22;11064;47.102;15.452;2023-04-25T19:21:32;8.10;79.60
21805;DHT22;11064;47.102;15.452;2023-04-25T19:23:58;8.00;80.80
21805;DHT22;11064;47.102;15.452;2023-04-25T19:26:26;8.00;80.50
21805;DHT22;11064;47.102;15.452;2023-04-25T19:29:09;8.00;81.90
21805;DHT22;11064;47.102;15.452;2023-04-25T19:31:37;7.90;81.40
21805;DHT22;11064;47.102;15.452;2023-04-25T19:34:04;7.90;81.40